Academy, South Dakota
Current Conditions -  °F | °C
As of 7:15 PM on Tuesday 25 Nov 2014 (Local Time) from K9V9 Reporting Station
Drizzle Drizzle  
Wind Chill: 26°   Ceiling: 2300
Heat Index: 34°   Visibility: 10mi
Dew Point: 31°   Wind: 10mph
Humidity: 89%   Direction: 290°WNW
Pressure: 29.79"   Gusts: NA
Location:  43.4255°N, 98.9806°W
Report Text: K9V9 260115Z AUTO 29009KT 10SM -DZ BKN023 OVC030 01/00 A2979 RMK AO2 T00131004
Loading
Personal Weather Stations






























Interactive Weather Map New forecast layout! Learn more

10-Day Weather Forecast

Advertisements
Track Severe Weather on mobile